This is the latest recevied weather packets stored in our database for station/object YO6RK-13. If no packets are shown the sender has not sent any weather packets the latest 10 day(s).
| Time | Temp. | Humidity | Pressure | Rain* | Wind** | Luminosity | Snow |
|---|---|---|---|---|---|---|---|
| 1777127433 | 19.44° C | 36% | 1009.9 hPa | 0 mm | - | - | - |
| 1777126514 | 19.44° C | 36% | 1009.9 hPa | 0 mm | - | - | - |
| 1777123223 | 20° C | 35% | 1010.4 hPa | 0 mm | - | - | - |
| 1777122037 | 19.44° C | 37% | 1010.5 hPa | 0 mm | - | - | - |
| 1777121727 | 19.44° C | 37% | 1010.6 hPa | 0 mm | - | - | - |
| 1777120834 | 19.44° C | 37% | 1010.9 hPa | 0 mm | - | - | - |
| 1777119932 | 19.44° C | 37% | 1011 hPa | 0 mm | - | - | - |
| 1777112743 | 20° C | 37% | 1012.3 hPa | 0 mm | - | - | - |
| 1777111824 | 20° C | 39% | 1012.3 hPa | 0 mm | - | - | - |
| 1777111223 | 19.44° C | 38% | 1012.5 hPa | 0 mm | - | - | - |
| 1777110639 | 19.44° C | 38% | 1012.3 hPa | 0 mm | - | - | - |
| 1777102821 | 15.56° C | 54% | 1012.9 hPa | 0 mm | - | - | - |
| 1777102222 | 13.33° C | 60% | 1012.9 hPa | 0 mm | - | - | - |
| 1777101018 | 11.67° C | 65% | 1013 hPa | 0 mm | - | - | - |
| 1777100140 | 11.11° C | 66% | 1013.1 hPa | 0 mm | - | - | - |
| 1777097449 | 8.89° C | 73% | 1013 hPa | 0 mm | - | - | - |
| 1777096815 | 8.89° C | 72% | 1013.2 hPa | 0 mm | - | - | - |
| 1777095629 | 8.89° C | 72% | 1013 hPa | 0 mm | - | - | - |
| 1777094127 | 8.33° C | 71% | 1012.8 hPa | 0 mm | - | - | - |
| 1777091735 | 5.56° C | 82% | 1012.9 hPa | 0 mm | - | - | - |
* Rain latest hour (hover to see other rain measurements)
** Current wind speed in m/s (hover to see current wind gust speed)